createdAt,value
2018-05-23T00:00:05.382Z,20.8
2018-05-23T00:15:05.051Z,20.2
2018-05-23T00:30:04.542Z,20.7
2018-05-23T00:45:05.421Z,20.6
2018-05-23T01:00:05.120Z,20.6
2018-05-23T01:15:04.553Z,20.7
2018-05-23T01:30:04.534Z,20.4
2018-05-23T01:45:05.200Z,20.7
2018-05-23T02:00:05.140Z,20.7
2018-05-23T02:15:04.894Z,20.7
2018-05-23T02:30:05.204Z,20.2
2018-05-23T02:45:04.901Z,20.6
2018-05-23T03:00:04.873Z,20.5
2018-05-23T03:15:05.002Z,20.3
2018-05-23T03:30:05.720Z,20.3
2018-05-23T03:45:04.873Z,20
2018-05-23T04:00:04.572Z,20.1
2018-05-23T04:15:05.140Z,20.2
2018-05-23T04:30:04.893Z,20.3
2018-05-23T04:45:04.844Z,20.3
2018-05-23T05:00:04.735Z,20.3
2018-05-23T05:15:04.253Z,20.1
2018-05-23T05:30:04.625Z,20.3
2018-05-23T05:45:04.530Z,20.3
2018-05-23T06:00:05.063Z,20.3
2018-05-23T06:15:04.459Z,20.3
2018-05-23T06:30:04.430Z,20.6
2018-05-23T06:45:04.852Z,20.6
2018-05-23T07:00:04.798Z,20.7
2018-05-23T07:15:04.421Z,20.7
2018-05-23T07:30:04.482Z,20.8
2018-05-23T07:45:04.874Z,21
2018-05-23T08:00:04.443Z,21.1
2018-05-23T08:15:04.413Z,21.1
2018-05-23T08:30:04.260Z,21.3
2018-05-23T08:45:05.117Z,21.1
2018-05-23T09:00:05.080Z,21.2
2018-05-23T09:15:05.056Z,21.6
2018-05-23T09:30:04.814Z,21.4
2018-05-23T09:45:04.762Z,21.6
2018-05-23T10:00:04.386Z,21.7
2018-05-23T10:15:04.868Z,22.1
2018-05-23T10:30:04.593Z,22.2
2018-05-23T10:45:05.294Z,22.4
2018-05-23T11:00:04.676Z,22.3
2018-05-23T11:15:04.497Z,22.6
2018-05-23T11:30:04.708Z,22.8
2018-05-23T11:45:04.656Z,23.2
2018-05-23T12:00:04.662Z,23.5
2018-05-23T12:15:05.156Z,23.5
2018-05-23T12:30:04.313Z,23.2
2018-05-23T12:45:04.355Z,23.4
2018-05-23T13:00:05.339Z,23.6
2018-05-23T13:15:04.280Z,23.7
2018-05-23T13:30:04.396Z,23.6
2018-05-23T13:45:04.865Z,23.6
2018-05-23T14:00:04.187Z,24.1
2018-05-23T14:15:04.703Z,24.1
2018-05-23T14:30:04.292Z,24.3
2018-05-23T14:45:05.151Z,24.6
2018-05-23T15:00:05.087Z,24.7
2018-05-23T15:15:05.320Z,24.7
2018-05-23T15:30:04.848Z,24.6
2018-05-23T15:45:04.435Z,24.8
2018-05-23T16:00:04.786Z,24.8
2018-05-23T16:15:05.215Z,25
2018-05-23T16:30:04.671Z,25.1
2018-05-23T16:45:04.465Z,25.2
2018-05-23T17:00:05.554Z,25.3
2018-05-23T17:15:04.451Z,25.2
2018-05-23T17:30:04.338Z,25
2018-05-23T17:45:05.103Z,24.8
2018-05-23T18:00:05.100Z,25
2018-05-23T18:15:04.922Z,24.5
2018-05-23T18:30:04.686Z,24.6
2018-05-23T18:45:04.854Z,24.6
2018-05-23T19:00:05.247Z,24.1
2018-05-23T19:15:04.853Z,24
2018-05-23T19:30:04.938Z,23.8
2018-05-23T19:45:05.166Z,23.8
2018-05-23T20:00:04.548Z,23.7
2018-05-23T20:15:04.288Z,23.4
2018-05-23T20:30:04.893Z,23
2018-05-23T20:45:05.037Z,22.6
2018-05-23T21:00:04.495Z,22.4
2018-05-23T21:15:05.043Z,21.9
2018-05-23T21:30:04.823Z,21.8
2018-05-23T21:45:04.903Z,22
2018-05-23T22:00:04.435Z,21.9
2018-05-23T22:15:05.389Z,21.7
2018-05-23T22:30:05.206Z,21.4
2018-05-23T22:45:04.364Z,21.3
2018-05-23T23:00:04.966Z,21.5
2018-05-23T23:15:04.854Z,21.5
2018-05-23T23:30:04.820Z,21.5
2018-05-23T23:45:05.033Z,21.2
